sensor_id;sensor_type;location;lat;lon;timestamp;temperature;humidity
72905;DHT22;61048;52.162;4.516;2023-05-29T00:00:29;19.50;48.50
72905;DHT22;61048;52.162;4.516;2023-05-29T00:02:57;19.50;48.50
72905;DHT22;61048;52.162;4.516;2023-05-29T00:05:24;19.50;48.50
72905;DHT22;61048;52.162;4.516;2023-05-29T00:07:51;19.50;48.60
72905;DHT22;61048;52.162;4.516;2023-05-29T00:10:18;19.50;48.50
72905;DHT22;61048;52.162;4.516;2023-05-29T00:12:46;19.50;48.70
72905;DHT22;61048;52.162;4.516;2023-05-29T00:15:13;19.50;48.60
72905;DHT22;61048;52.162;4.516;2023-05-29T00:17:40;19.50;48.70
72905;DHT22;61048;52.162;4.516;2023-05-29T00:20:09;19.40;48.50
72905;DHT22;61048;52.162;4.516;2023-05-29T00:22:37;19.40;48.60
72905;DHT22;61048;52.162;4.516;2023-05-29T00:25:04;19.40;48.70
72905;DHT22;61048;52.162;4.516;2023-05-29T00:27:31;19.40;48.70
72905;DHT22;61048;52.162;4.516;2023-05-29T00:30:00;19.40;48.70
72905;DHT22;61048;52.162;4.516;2023-05-29T00:32:27;19.40;48.70
72905;DHT22;61048;52.162;4.516;2023-05-29T00:34:54;19.40;48.70
72905;DHT22;61048;52.162;4.516;2023-05-29T00:37:21;19.30;48.70
72905;DHT22;61048;52.162;4.516;2023-05-29T00:39:48;19.30;48.80
72905;DHT22;61048;52.162;4.516;2023-05-29T00:42:15;19.30;48.80
72905;DHT22;61048;52.162;4.516;2023-05-29T00:44:42;19.30;48.70
72905;DHT22;61048;52.162;4.516;2023-05-29T00:47:10;19.30;48.80
72905;DHT22;61048;52.162;4.516;2023-05-29T00:49:37;19.30;48.70
72905;DHT22;61048;52.162;4.516;2023-05-29T00:52:05;19.30;48.80
72905;DHT22;61048;52.162;4.516;2023-05-29T00:54:34;19.20;48.70
72905;DHT22;61048;52.162;4.516;2023-05-29T00:57:02;19.20;48.70
72905;DHT22;61048;52.162;4.516;2023-05-29T00:59:32;19.20;48.70
72905;DHT22;61048;52.162;4.516;2023-05-29T01:02:01;19.10;48.60
72905;DHT22;61048;52.162;4.516;2023-05-29T01:04:29;19.20;48.80
72905;DHT22;61048;52.162;4.516;2023-05-29T01:06:59;19.10;48.70
72905;DHT22;61048;52.162;4.516;2023-05-29T01:09:28;19.10;48.70
72905;DHT22;61048;52.162;4.516;2023-05-29T01:11:59;19.10;48.50
72905;DHT22;61048;52.162;4.516;2023-05-29T01:14:42;19.10;48.60
72905;DHT22;61048;52.162;4.516;2023-05-29T01:17:17;19.10;48.70
72905;DHT22;61048;52.162;4.516;2023-05-29T01:20:02;19.10;48.60
72905;DHT22;61048;52.162;4.516;2023-05-29T01:22:40;19.10;48.80
72905;DHT22;61048;52.162;4.516;2023-05-29T01:25:11;19.10;48.50
72905;DHT22;61048;52.162;4.516;2023-05-29T01:27:46;19.10;48.60
72905;DHT22;61048;52.162;4.516;2023-05-29T01:30:15;19.10;48.60
72905;DHT22;61048;52.162;4.516;2023-05-29T01:32:43;19.10;48.50
72905;DHT22;61048;52.162;4.516;2023-05-29T01:35:10;19.00;48.70
72905;DHT22;61048;52.162;4.516;2023-05-29T01:37:37;19.10;48.60
72905;DHT22;61048;52.162;4.516;2023-05-29T01:40:04;19.00;48.60
72905;DHT22;61048;52.162;4.516;2023-05-29T01:42:32;19.00;48.50
72905;DHT22;61048;52.162;4.516;2023-05-29T01:45:01;19.00;48.50
72905;DHT22;61048;52.162;4.516;2023-05-29T01:47:31;19.00;48.60
72905;DHT22;61048;52.162;4.516;2023-05-29T01:49:59;19.00;48.60
72905;DHT22;61048;52.162;4.516;2023-05-29T01:52:27;19.00;48.60
72905;DHT22;61048;52.162;4.516;2023-05-29T01:54:53;19.00;48.70
72905;DHT22;61048;52.162;4.516;2023-05-29T01:57:21;19.00;48.60
72905;DHT22;61048;52.162;4.516;2023-05-29T01:59:48;19.00;48.60
72905;DHT22;61048;52.162;4.516;2023-05-29T02:02:16;19.00;48.50
72905;DHT22;61048;52.162;4.516;2023-05-29T02:04:43;18.90;48.50
72905;DHT22;61048;52.162;4.516;2023-05-29T02:07:10;18.90;48.50
72905;DHT22;61048;52.162;4.516;2023-05-29T02:09:38;18.90;48.50
72905;DHT22;61048;52.162;4.516;2023-05-29T02:12:05;18.90;48.40
72905;DHT22;61048;52.162;4.516;2023-05-29T02:14:32;18.90;48.40
72905;DHT22;61048;52.162;4.516;2023-05-29T02:16:59;18.90;48.40
72905;DHT22;61048;52.162;4.516;2023-05-29T02:19:28;18.90;48.50
72905;DHT22;61048;52.162;4.516;2023-05-29T02:21:55;18.90;48.50
72905;DHT22;61048;52.162;4.516;2023-05-29T02:24:22;18.80;48.60
72905;DHT22;61048;52.162;4.516;2023-05-29T02:26:49;18.80;48.50
72905;DHT22;61048;52.162;4.516;2023-05-29T02:29:17;18.80;48.50
72905;DHT22;61048;52.162;4.516;2023-05-29T02:31:44;18.80;48.40
72905;DHT22;61048;52.162;4.516;2023-05-29T02:34:11;18.80;48.60
72905;DHT22;61048;52.162;4.516;2023-05-29T02:36:39;18.80;48.60
72905;DHT22;61048;52.162;4.516;2023-05-29T02:39:06;18.80;48.50
72905;DHT22;61048;52.162;4.516;2023-05-29T02:41:33;18.80;48.60
72905;DHT22;61048;52.162;4.516;2023-05-29T02:43:59;18.80;48.50
72905;DHT22;61048;52.162;4.516;2023-05-29T02:46:26;18.80;48.70
72905;DHT22;61048;52.162;4.516;2023-05-29T02:48:53;18.80;48.60
72905;DHT22;61048;52.162;4.516;2023-05-29T02:51:20;18.80;48.60
72905;DHT22;61048;52.162;4.516;2023-05-29T02:53:48;18.80;48.60
72905;DHT22;61048;52.162;4.516;2023-05-29T02:56:15;18.70;48.50
72905;DHT22;61048;52.162;4.516;2023-05-29T02:58:42;18.70;48.50
72905;DHT22;61048;52.162;4.516;2023-05-29T03:01:09;18.80;48.50
72905;DHT22;61048;52.162;4.516;2023-05-29T03:03:36;18.70;48.50
72905;DHT22;61048;52.162;4.516;2023-05-29T03:06:03;18.70;48.50
72905;DHT22;61048;52.162;4.516;2023-05-29T03:08:31;18.70;48.50
72905;DHT22;61048;52.162;4.516;2023-05-29T03:11:00;18.70;48.60
72905;DHT22;61048;52.162;4.516;2023-05-29T03:13:28;18.70;48.50
72905;DHT22;61048;52.162;4.516;2023-05-29T03:15:55;18.70;48.50
72905;DHT22;61048;52.162;4.516;2023-05-29T03:18:22;18.70;48.40
72905;DHT22;61048;52.162;4.516;2023-05-29T03:20:49;18.60;48.40
72905;DHT22;61048;52.162;4.516;2023-05-29T03:23:16;18.60;48.50
72905;DHT22;61048;52.162;4.516;2023-05-29T03:25:43;18.60;48.50
72905;DHT22;61048;52.162;4.516;2023-05-29T03:28:11;18.60;48.40
72905;DHT22;61048;52.162;4.516;2023-05-29T03:30:38;18.60;48.30
72905;DHT22;61048;52.162;4.516;2023-05-29T03:33:05;18.60;48.30
72905;DHT22;61048;52.162;4.516;2023-05-29T03:35:32;18.60;48.30
72905;DHT22;61048;52.162;4.516;2023-05-29T03:37:59;18.60;48.30
72905;DHT22;61048;52.162;4.516;2023-05-29T03:40:26;18.60;48.40
72905;DHT22;61048;52.162;4.516;2023-05-29T03:42:53;18.60;48.30
72905;DHT22;61048;52.162;4.516;2023-05-29T03:45:21;18.60;48.30
72905;DHT22;61048;52.162;4.516;2023-05-29T03:47:48;18.50;48.40
72905;DHT22;61048;52.162;4.516;2023-05-29T03:50:15;18.60;48.40
72905;DHT22;61048;52.162;4.516;2023-05-29T03:52:42;18.50;48.50
72905;DHT22;61048;52.162;4.516;2023-05-29T03:55:10;18.60;48.50
72905;DHT22;61048;52.162;4.516;2023-05-29T03:57:40;18.50;48.70
72905;DHT22;61048;52.162;4.516;2023-05-29T04:00:08;18.50;48.60
72905;DHT22;61048;52.162;4.516;2023-05-29T04:02:38;18.60;48.70
72905;DHT22;61048;52.162;4.516;2023-05-29T04:05:06;18.60;48.80
72905;DHT22;61048;52.162;4.516;2023-05-29T04:07:35;18.60;48.70
72905;DHT22;61048;52.162;4.516;2023-05-29T04:10:05;18.60;48.80
72905;DHT22;61048;52.162;4.516;2023-05-29T04:12:32;18.60;48.70
72905;DHT22;61048;52.162;4.516;2023-05-29T04:14:59;18.60;48.70
72905;DHT22;61048;52.162;4.516;2023-05-29T04:17:26;18.60;48.70
72905;DHT22;61048;52.162;4.516;2023-05-29T04:19:54;18.60;48.80
72905;DHT22;61048;52.162;4.516;2023-05-29T04:22:21;18.60;48.80
72905;DHT22;61048;52.162;4.516;2023-05-29T04:24:48;18.60;48.70
72905;DHT22;61048;52.162;4.516;2023-05-29T04:27:15;18.60;48.70
72905;DHT22;61048;52.162;4.516;2023-05-29T04:29:43;18.60;48.70
72905;DHT22;61048;52.162;4.516;2023-05-29T04:32:09;18.70;48.70
72905;DHT22;61048;52.162;4.516;2023-05-29T04:34:37;18.70;48.70
72905;DHT22;61048;52.162;4.516;2023-05-29T04:37:05;18.70;48.60
72905;DHT22;61048;52.162;4.516;2023-05-29T04:39:32;18.70;48.70
72905;DHT22;61048;52.162;4.516;2023-05-29T04:41:59;18.70;48.60
72905;DHT22;61048;52.162;4.516;2023-05-29T04:44:27;18.70;48.60
72905;DHT22;61048;52.162;4.516;2023-05-29T04:46:54;18.70;48.60
72905;DHT22;61048;52.162;4.516;2023-05-29T04:49:22;18.70;48.60
72905;DHT22;61048;52.162;4.516;2023-05-29T04:51:49;18.80;48.60
72905;DHT22;61048;52.162;4.516;2023-05-29T04:54:19;18.70;48.60
72905;DHT22;61048;52.162;4.516;2023-05-29T04:56:46;18.80;48.50
72905;DHT22;61048;52.162;4.516;2023-05-29T04:59:13;18.80;48.50
72905;DHT22;61048;52.162;4.516;2023-05-29T05:01:40;18.80;48.40
72905;DHT22;61048;52.162;4.516;2023-05-29T05:04:08;18.80;48.30
72905;DHT22;61048;52.162;4.516;2023-05-29T05:06:35;18.80;48.40
72905;DHT22;61048;52.162;4.516;2023-05-29T05:09:03;18.80;48.30
72905;DHT22;61048;52.162;4.516;2023-05-29T05:11:31;18.80;48.20
72905;DHT22;61048;52.162;4.516;2023-05-29T05:13:58;18.80;47.90
72905;DHT22;61048;52.162;4.516;2023-05-29T05:16:25;18.80;47.80
72905;DHT22;61048;52.162;4.516;2023-05-29T05:18:52;18.70;47.80
72905;DHT22;61048;52.162;4.516;2023-05-29T05:21:19;18.80;48.00
72905;DHT22;61048;52.162;4.516;2023-05-29T05:23:46;18.80;48.00
72905;DHT22;61048;52.162;4.516;2023-05-29T05:26:12;18.80;48.00
72905;DHT22;61048;52.162;4.516;2023-05-29T05:28:41;18.80;47.80
72905;DHT22;61048;52.162;4.516;2023-05-29T05:31:08;18.80;47.50
72905;DHT22;61048;52.162;4.516;2023-05-29T05:33:35;18.80;47.80
72905;DHT22;61048;52.162;4.516;2023-05-29T05:36:02;18.80;47.60
72905;DHT22;61048;52.162;4.516;2023-05-29T05:38:29;18.80;47.60
72905;DHT22;61048;52.162;4.516;2023-05-29T05:40:56;18.80;47.60
72905;DHT22;61048;52.162;4.516;2023-05-29T05:43:22;18.80;47.50
72905;DHT22;61048;52.162;4.516;2023-05-29T05:45:53;18.80;47.40
72905;DHT22;61048;52.162;4.516;2023-05-29T05:48:20;18.80;47.20
72905;DHT22;61048;52.162;4.516;2023-05-29T05:50:47;18.90;47.30
72905;DHT22;61048;52.162;4.516;2023-05-29T05:53:14;18.90;47.20
72905;DHT22;61048;52.162;4.516;2023-05-29T05:55:42;18.90;46.90
72905;DHT22;61048;52.162;4.516;2023-05-29T05:58:09;18.90;46.90
72905;DHT22;61048;52.162;4.516;2023-05-29T06:00:36;18.90;46.80
72905;DHT22;61048;52.162;4.516;2023-05-29T06:03:04;18.90;46.50
72905;DHT22;61048;52.162;4.516;2023-05-29T06:05:31;18.90;46.20
72905;DHT22;61048;52.162;4.516;2023-05-29T06:07:59;18.90;46.40
72905;DHT22;61048;52.162;4.516;2023-05-29T06:10:26;18.90;46.50
72905;DHT22;61048;52.162;4.516;2023-05-29T06:12:53;19.00;46.10
72905;DHT22;61048;52.162;4.516;2023-05-29T06:15:20;19.00;46.10
72905;DHT22;61048;52.162;4.516;2023-05-29T06:17:47;19.00;46.00
72905;DHT22;61048;52.162;4.516;2023-05-29T06:20:15;19.00;46.10
72905;DHT22;61048;52.162;4.516;2023-05-29T06:22:42;19.10;45.90
72905;DHT22;61048;52.162;4.516;2023-05-29T06:25:09;19.10;45.80
72905;DHT22;61048;52.162;4.516;2023-05-29T06:27:36;19.20;45.70
72905;DHT22;61048;52.162;4.516;2023-05-29T06:30:03;19.20;45.50
72905;DHT22;61048;52.162;4.516;2023-05-29T06:32:30;19.20;45.40
72905;DHT22;61048;52.162;4.516;2023-05-29T06:34:57;19.20;45.30
72905;DHT22;61048;52.162;4.516;2023-05-29T06:37:25;19.20;45.20
72905;DHT22;61048;52.162;4.516;2023-05-29T06:39:52;19.20;44.90
72905;DHT22;61048;52.162;4.516;2023-05-29T06:42:19;19.20;44.90
72905;DHT22;61048;52.162;4.516;2023-05-29T06:44:46;19.30;44.90
72905;DHT22;61048;52.162;4.516;2023-05-29T06:47:13;19.30;44.60
72905;DHT22;61048;52.162;4.516;2023-05-29T06:49:40;19.40;44.70
72905;DHT22;61048;52.162;4.516;2023-05-29T06:52:06;19.40;44.50
72905;DHT22;61048;52.162;4.516;2023-05-29T06:54:35;19.40;44.60
72905;DHT22;61048;52.162;4.516;2023-05-29T06:57:01;19.50;44.30
72905;DHT22;61048;52.162;4.516;2023-05-29T06:59:28;19.50;44.50
72905;DHT22;61048;52.162;4.516;2023-05-29T07:01:55;19.50;44.30
72905;DHT22;61048;52.162;4.516;2023-05-29T07:04:22;19.50;44.00
72905;DHT22;61048;52.162;4.516;2023-05-29T07:06:49;19.50;43.90
72905;DHT22;61048;52.162;4.516;2023-05-29T07:09:16;19.50;44.00
72905;DHT22;61048;52.162;4.516;2023-05-29T07:11:45;19.50;43.80
72905;DHT22;61048;52.162;4.516;2023-05-29T07:14:12;19.50;43.80
72905;DHT22;61048;52.162;4.516;2023-05-29T07:16:39;19.50;43.80
72905;DHT22;61048;52.162;4.516;2023-05-29T07:19:06;19.60;43.80
72905;DHT22;61048;52.162;4.516;2023-05-29T07:21:33;19.60;43.80
72905;DHT22;61048;52.162;4.516;2023-05-29T07:24:01;19.70;43.80
72905;DHT22;61048;52.162;4.516;2023-05-29T07:26:28;19.70;43.60
72905;DHT22;61048;52.162;4.516;2023-05-29T07:28:57;19.70;43.40
72905;DHT22;61048;52.162;4.516;2023-05-29T07:31:24;19.70;43.30
72905;DHT22;61048;52.162;4.516;2023-05-29T07:33:51;19.80;43.30
72905;DHT22;61048;52.162;4.516;2023-05-29T07:36:18;19.80;43.30
72905;DHT22;61048;52.162;4.516;2023-05-29T07:38:45;19.80;43.30
72905;DHT22;61048;52.162;4.516;2023-05-29T07:41:12;19.80;43.20
72905;DHT22;61048;52.162;4.516;2023-05-29T07:43:39;19.80;43.20
72905;DHT22;61048;52.162;4.516;2023-05-29T07:46:08;19.80;43.10
72905;DHT22;61048;52.162;4.516;2023-05-29T07:48:35;19.80;42.90
72905;DHT22;61048;52.162;4.516;2023-05-29T07:51:01;19.80;42.90
72905;DHT22;61048;52.162;4.516;2023-05-29T07:53:28;19.80;42.60
72905;DHT22;61048;52.162;4.516;2023-05-29T07:55:55;19.80;42.40
72905;DHT22;61048;52.162;4.516;2023-05-29T07:58:22;19.80;42.50
72905;DHT22;61048;52.162;4.516;2023-05-29T08:00:49;19.70;42.30
72905;DHT22;61048;52.162;4.516;2023-05-29T08:03:17;19.70;42.10
72905;DHT22;61048;52.162;4.516;2023-05-29T08:05:44;19.70;42.20
72905;DHT22;61048;52.162;4.516;2023-05-29T08:08:11;19.70;42.20
72905;DHT22;61048;52.162;4.516;2023-05-29T08:10:39;19.80;41.90
72905;DHT22;61048;52.162;4.516;2023-05-29T08:13:06;19.80;42.00
72905;DHT22;61048;52.162;4.516;2023-05-29T08:15:33;19.80;41.90
72905;DHT22;61048;52.162;4.516;2023-05-29T08:18:00;19.80;42.00
72905;DHT22;61048;52.162;4.516;2023-05-29T08:20:28;19.90;42.00
72905;DHT22;61048;52.162;4.516;2023-05-29T08:22:55;19.90;42.00
72905;DHT22;61048;52.162;4.516;2023-05-29T08:25:22;19.90;42.00
72905;DHT22;61048;52.162;4.516;2023-05-29T08:27:48;19.90;41.90
72905;DHT22;61048;52.162;4.516;2023-05-29T08:30:15;19.90;41.90
72905;DHT22;61048;52.162;4.516;2023-05-29T08:32:43;19.90;41.90
72905;DHT22;61048;52.162;4.516;2023-05-29T08:35:09;20.00;41.80
72905;DHT22;61048;52.162;4.516;2023-05-29T08:37:38;20.00;41.90
72905;DHT22;61048;52.162;4.516;2023-05-29T08:40:05;20.00;41.90
72905;DHT22;61048;52.162;4.516;2023-05-29T08:42:39;20.10;42.20
72905;DHT22;61048;52.162;4.516;2023-05-29T08:45:09;20.10;41.90
72905;DHT22;61048;52.162;4.516;2023-05-29T08:47:40;20.10;41.80
72905;DHT22;61048;52.162;4.516;2023-05-29T08:50:07;20.10;41.70
72905;DHT22;61048;52.162;4.516;2023-05-29T08:52:35;20.10;41.90
72905;DHT22;61048;52.162;4.516;2023-05-29T08:55:05;20.10;42.00
72905;DHT22;61048;52.162;4.516;2023-05-29T08:57:32;20.10;42.00
72905;DHT22;61048;52.162;4.516;2023-05-29T09:00:02;20.10;42.10
72905;DHT22;61048;52.162;4.516;2023-05-29T09:02:34;20.10;42.10
72905;DHT22;61048;52.162;4.516;2023-05-29T09:05:02;20.10;42.00
72905;DHT22;61048;52.162;4.516;2023-05-29T09:07:29;20.10;42.00
72905;DHT22;61048;52.162;4.516;2023-05-29T09:09:57;20.00;41.90
72905;DHT22;61048;52.162;4.516;2023-05-29T09:12:25;20.10;41.90
72905;DHT22;61048;52.162;4.516;2023-05-29T09:14:52;20.00;41.80
72905;DHT22;61048;52.162;4.516;2023-05-29T09:17:19;20.00;41.90
72905;DHT22;61048;52.162;4.516;2023-05-29T09:19:48;20.10;41.80
72905;DHT22;61048;52.162;4.516;2023-05-29T09:22:15;20.00;41.80
72905;DHT22;61048;52.162;4.516;2023-05-29T09:24:43;20.10;41.80
72905;DHT22;61048;52.162;4.516;2023-05-29T09:27:12;20.00;41.90
72905;DHT22;61048;52.162;4.516;2023-05-29T09:29:41;20.10;42.00
72905;DHT22;61048;52.162;4.516;2023-05-29T09:32:10;20.10;42.00
72905;DHT22;61048;52.162;4.516;2023-05-29T09:34:37;20.10;42.00
72905;DHT22;61048;52.162;4.516;2023-05-29T09:37:05;20.10;41.90
72905;DHT22;61048;52.162;4.516;2023-05-29T09:39:44;20.10;41.80
72905;DHT22;61048;52.162;4.516;2023-05-29T09:42:11;20.20;41.70
72905;DHT22;61048;52.162;4.516;2023-05-29T09:44:41;20.10;41.70
72905;DHT22;61048;52.162;4.516;2023-05-29T09:47:08;20.10;41.80
72905;DHT22;61048;52.162;4.516;2023-05-29T09:49:40;20.00;41.80
72905;DHT22;61048;52.162;4.516;2023-05-29T09:52:10;20.00;41.90
72905;DHT22;61048;52.162;4.516;2023-05-29T09:54:41;20.10;41.90
72905;DHT22;61048;52.162;4.516;2023-05-29T09:57:12;20.10;41.80
72905;DHT22;61048;52.162;4.516;2023-05-29T09:59:40;20.10;41.90
72905;DHT22;61048;52.162;4.516;2023-05-29T10:02:10;20.10;41.90
72905;DHT22;61048;52.162;4.516;2023-05-29T10:04:37;20.10;42.00
72905;DHT22;61048;52.162;4.516;2023-05-29T10:07:09;20.10;41.90
72905;DHT22;61048;52.162;4.516;2023-05-29T10:09:41;20.10;41.90
72905;DHT22;61048;52.162;4.516;2023-05-29T10:12:11;20.10;41.50
72905;DHT22;61048;52.162;4.516;2023-05-29T10:14:38;20.10;41.40
72905;DHT22;61048;52.162;4.516;2023-05-29T10:17:09;20.10;41.40
72905;DHT22;61048;52.162;4.516;2023-05-29T10:19:39;20.10;41.40
72905;DHT22;61048;52.162;4.516;2023-05-29T10:22:07;20.20;41.50
72905;DHT22;61048;52.162;4.516;2023-05-29T10:24:37;20.20;41.40
72905;DHT22;61048;52.162;4.516;2023-05-29T10:27:04;20.20;41.60
72905;DHT22;61048;52.162;4.516;2023-05-29T10:29:35;20.20;41.60
72905;DHT22;61048;52.162;4.516;2023-05-29T10:32:17;20.20;41.70
72905;DHT22;61048;52.162;4.516;2023-05-29T10:34:50;20.20;41.20
72905;DHT22;61048;52.162;4.516;2023-05-29T10:37:37;20.10;41.40
72905;DHT22;61048;52.162;4.516;2023-05-29T10:40:08;20.10;41.50
72905;DHT22;61048;52.162;4.516;2023-05-29T10:42:42;20.10;41.50
72905;DHT22;61048;52.162;4.516;2023-05-29T10:45:10;20.10;41.30
72905;DHT22;61048;52.162;4.516;2023-05-29T10:47:39;20.10;41.40
72905;DHT22;61048;52.162;4.516;2023-05-29T10:50:06;20.10;41.20
72905;DHT22;61048;52.162;4.516;2023-05-29T10:52:34;20.10;41.20
72905;DHT22;61048;52.162;4.516;2023-05-29T10:55:01;20.10;41.20
72905;DHT22;61048;52.162;4.516;2023-05-29T10:57:30;20.10;41.30
72905;DHT22;61048;52.162;4.516;2023-05-29T11:00:06;20.10;41.30
72905;DHT22;61048;52.162;4.516;2023-05-29T11:02:40;20.10;41.30
72905;DHT22;61048;52.162;4.516;2023-05-29T11:05:21;20.10;41.20
72905;DHT22;61048;52.162;4.516;2023-05-29T11:07:57;20.10;41.30
72905;DHT22;61048;52.162;4.516;2023-05-29T11:10:44;20.10;41.30
72905;DHT22;61048;52.162;4.516;2023-05-29T11:13:23;20.00;41.10
72905;DHT22;61048;52.162;4.516;2023-05-29T11:16:05;19.90;41.20
72905;DHT22;61048;52.162;4.516;2023-05-29T11:18:38;20.00;41.40
72905;DHT22;61048;52.162;4.516;2023-05-29T11:21:28;20.00;41.60
72905;DHT22;61048;52.162;4.516;2023-05-29T11:23:57;20.00;41.50
72905;DHT22;61048;52.162;4.516;2023-05-29T11:26:27;20.00;41.50
72905;DHT22;61048;52.162;4.516;2023-05-29T11:28:57;20.00;41.50
72905;DHT22;61048;52.162;4.516;2023-05-29T11:31:25;20.00;41.70
72905;DHT22;61048;52.162;4.516;2023-05-29T11:33:55;20.00;41.70
72905;DHT22;61048;52.162;4.516;2023-05-29T11:36:26;20.10;41.80
72905;DHT22;61048;52.162;4.516;2023-05-29T11:38:53;20.10;41.90
72905;DHT22;61048;52.162;4.516;2023-05-29T11:41:20;20.10;41.80
72905;DHT22;61048;52.162;4.516;2023-05-29T11:43:56;20.10;41.80
72905;DHT22;61048;52.162;4.516;2023-05-29T11:46:23;20.10;41.80
72905;DHT22;61048;52.162;4.516;2023-05-29T11:48:53;20.20;41.90
72905;DHT22;61048;52.162;4.516;2023-05-29T11:51:20;20.20;41.60
72905;DHT22;61048;52.162;4.516;2023-05-29T11:53:48;20.20;41.50
72905;DHT22;61048;52.162;4.516;2023-05-29T11:56:15;20.20;41.60
72905;DHT22;61048;52.162;4.516;2023-05-29T11:58:42;20.20;41.30
72905;DHT22;61048;52.162;4.516;2023-05-29T12:01:09;20.20;40.90
72905;DHT22;61048;52.162;4.516;2023-05-29T12:03:40;20.20;40.80
72905;DHT22;61048;52.162;4.516;2023-05-29T12:06:09;20.10;40.80
72905;DHT22;61048;52.162;4.516;2023-05-29T12:08:37;20.20;41.00
72905;DHT22;61048;52.162;4.516;2023-05-29T12:11:04;20.20;41.10
72905;DHT22;61048;52.162;4.516;2023-05-29T12:13:32;20.20;41.10
72905;DHT22;61048;52.162;4.516;2023-05-29T12:16:00;20.20;41.10
72905;DHT22;61048;52.162;4.516;2023-05-29T12:18:28;20.20;41.20
72905;DHT22;61048;52.162;4.516;2023-05-29T12:21:00;20.20;41.30
72905;DHT22;61048;52.162;4.516;2023-05-29T12:23:29;20.20;41.20
72905;DHT22;61048;52.162;4.516;2023-05-29T12:25:56;20.20;41.10
72905;DHT22;61048;52.162;4.516;2023-05-29T12:28:23;20.20;41.20
72905;DHT22;61048;52.162;4.516;2023-05-29T12:30:50;20.20;41.10
72905;DHT22;61048;52.162;4.516;2023-05-29T12:33:25;20.10;41.20
72905;DHT22;61048;52.162;4.516;2023-05-29T12:35:53;20.10;41.30
72905;DHT22;61048;52.162;4.516;2023-05-29T12:38:22;20.10;41.50
72905;DHT22;61048;52.162;4.516;2023-05-29T12:40:51;20.10;41.60
72905;DHT22;61048;52.162;4.516;2023-05-29T12:43:18;20.10;41.80
72905;DHT22;61048;52.162;4.516;2023-05-29T12:45:45;20.20;41.90
72905;DHT22;61048;52.162;4.516;2023-05-29T12:48:12;20.20;42.10
72905;DHT22;61048;52.162;4.516;2023-05-29T12:50:40;20.20;42.10
72905;DHT22;61048;52.162;4.516;2023-05-29T12:53:08;20.20;42.10
72905;DHT22;61048;52.162;4.516;2023-05-29T12:55:36;20.20;42.20
72905;DHT22;61048;52.162;4.516;2023-05-29T12:58:06;20.20;42.30
72905;DHT22;61048;52.162;4.516;2023-05-29T13:00:34;20.20;42.70
72905;DHT22;61048;52.162;4.516;2023-05-29T13:03:01;20.20;43.00
72905;DHT22;61048;52.162;4.516;2023-05-29T13:05:28;20.20;43.10
72905;DHT22;61048;52.162;4.516;2023-05-29T13:07:55;20.20;42.20
72905;DHT22;61048;52.162;4.516;2023-05-29T13:10:24;20.10;42.10
72905;DHT22;61048;52.162;4.516;2023-05-29T13:12:52;19.90;42.40
72905;DHT22;61048;52.162;4.516;2023-05-29T13:15:22;19.90;42.50
72905;DHT22;61048;52.162;4.516;2023-05-29T13:17:49;19.90;42.50
72905;DHT22;61048;52.162;4.516;2023-05-29T13:20:17;19.90;42.10
72905;DHT22;61048;52.162;4.516;2023-05-29T13:22:45;19.90;42.00
72905;DHT22;61048;52.162;4.516;2023-05-29T13:25:15;19.90;42.30
72905;DHT22;61048;52.162;4.516;2023-05-29T13:27:44;19.90;42.30
72905;DHT22;61048;52.162;4.516;2023-05-29T13:30:13;20.00;42.10
72905;DHT22;61048;52.162;4.516;2023-05-29T13:32:42;20.10;42.10
72905;DHT22;61048;52.162;4.516;2023-05-29T13:35:09;20.10;42.10
72905;DHT22;61048;52.162;4.516;2023-05-29T13:37:36;20.10;42.20
72905;DHT22;61048;52.162;4.516;2023-05-29T13:40:04;20.10;42.20
72905;DHT22;61048;52.162;4.516;2023-05-29T13:42:31;20.20;42.30
72905;DHT22;61048;52.162;4.516;2023-05-29T13:44:58;20.20;42.20
72905;DHT22;61048;52.162;4.516;2023-05-29T13:47:25;20.20;42.00
72905;DHT22;61048;52.162;4.516;2023-05-29T13:49:55;20.20;41.90
72905;DHT22;61048;52.162;4.516;2023-05-29T13:52:22;20.20;42.00
72905;DHT22;61048;52.162;4.516;2023-05-29T13:54:50;20.20;42.00
72905;DHT22;61048;52.162;4.516;2023-05-29T13:57:17;20.20;42.10
72905;DHT22;61048;52.162;4.516;2023-05-29T13:59:44;20.30;42.10
72905;DHT22;61048;52.162;4.516;2023-05-29T14:02:11;20.30;41.70
72905;DHT22;61048;52.162;4.516;2023-05-29T14:04:38;20.30;41.90
72905;DHT22;61048;52.162;4.516;2023-05-29T14:07:09;20.30;41.90
72905;DHT22;61048;52.162;4.516;2023-05-29T14:09:36;20.30;41.90
72905;DHT22;61048;52.162;4.516;2023-05-29T14:12:03;20.30;41.80
72905;DHT22;61048;52.162;4.516;2023-05-29T14:14:32;20.30;42.00
72905;DHT22;61048;52.162;4.516;2023-05-29T14:16:59;20.30;41.80
72905;DHT22;61048;52.162;4.516;2023-05-29T14:19:26;20.40;41.90
72905;DHT22;61048;52.162;4.516;2023-05-29T14:21:53;20.40;41.70
72905;DHT22;61048;52.162;4.516;2023-05-29T14:24:21;20.40;41.60
72905;DHT22;61048;52.162;4.516;2023-05-29T14:26:50;20.40;41.80
72905;DHT22;61048;52.162;4.516;2023-05-29T14:29:17;20.40;41.70
72905;DHT22;61048;52.162;4.516;2023-05-29T14:31:44;20.40;41.80
72905;DHT22;61048;52.162;4.516;2023-05-29T14:34:12;20.40;41.80
72905;DHT22;61048;52.162;4.516;2023-05-29T14:36:39;20.30;41.90
72905;DHT22;61048;52.162;4.516;2023-05-29T14:39:07;20.20;41.80
72905;DHT22;61048;52.162;4.516;2023-05-29T14:41:35;20.10;42.10
72905;DHT22;61048;52.162;4.516;2023-05-29T14:44:02;20.00;41.90
72905;DHT22;61048;52.162;4.516;2023-05-29T14:46:29;19.90;41.90
72905;DHT22;61048;52.162;4.516;2023-05-29T14:48:57;19.90;42.40
72905;DHT22;61048;52.162;4.516;2023-05-29T14:51:24;20.00;42.20
72905;DHT22;61048;52.162;4.516;2023-05-29T14:53:51;20.10;42.30
72905;DHT22;61048;52.162;4.516;2023-05-29T14:56:18;20.20;42.00
72905;DHT22;61048;52.162;4.516;2023-05-29T14:58:47;20.20;42.10
72905;DHT22;61048;52.162;4.516;2023-05-29T15:01:14;20.30;42.10
72905;DHT22;61048;52.162;4.516;2023-05-29T15:03:41;20.30;42.20
72905;DHT22;61048;52.162;4.516;2023-05-29T15:06:09;20.30;42.30
72905;DHT22;61048;52.162;4.516;2023-05-29T15:08:37;20.30;42.20
72905;DHT22;61048;52.162;4.516;2023-05-29T15:11:05;20.40;42.20
72905;DHT22;61048;52.162;4.516;2023-05-29T15:13:33;20.40;42.20
72905;DHT22;61048;52.162;4.516;2023-05-29T15:16:01;20.40;41.90
72905;DHT22;61048;52.162;4.516;2023-05-29T15:18:29;20.40;41.90
72905;DHT22;61048;52.162;4.516;2023-05-29T15:20:55;20.40;42.00
72905;DHT22;61048;52.162;4.516;2023-05-29T15:23:24;20.40;42.10
72905;DHT22;61048;52.162;4.516;2023-05-29T15:25:51;20.40;42.10
72905;DHT22;61048;52.162;4.516;2023-05-29T15:28:19;20.40;42.10
72905;DHT22;61048;52.162;4.516;2023-05-29T15:30:46;20.40;42.10
72905;DHT22;61048;52.162;4.516;2023-05-29T15:33:14;20.40;42.10
72905;DHT22;61048;52.162;4.516;2023-05-29T15:35:41;20.40;42.00